createdAt,value
2023-03-19T00:01:53.851Z,8.98
2023-03-19T00:03:56.755Z,7.30
2023-03-19T00:05:59.516Z,7.43
2023-03-19T00:08:02.265Z,9.60
2023-03-19T00:10:05.361Z,7.68
2023-03-19T00:12:08.862Z,5.72
2023-03-19T00:14:11.905Z,4.10
2023-03-19T00:16:16.274Z,6.43
2023-03-19T00:18:19.016Z,5.93
2023-03-19T00:20:22.299Z,5.97
2023-03-19T00:22:25.638Z,8.95
2023-03-19T00:24:28.960Z,7.10
2023-03-19T00:26:33.028Z,5.85
2023-03-19T00:28:37.236Z,7.07
2023-03-19T00:30:40.222Z,7.22
2023-03-19T00:32:44.461Z,4.82
2023-03-19T00:34:47.614Z,7.30
2023-03-19T00:36:50.521Z,4.68
2023-03-19T00:38:53.502Z,6.82
2023-03-19T00:40:56.325Z,3.80
2023-03-19T00:42:59.122Z,4.70
2023-03-19T00:45:01.913Z,4.97
2023-03-19T00:47:05.638Z,4.25
2023-03-19T00:49:10.139Z,6.15
2023-03-19T00:51:13.035Z,3.58
2023-03-19T00:53:16.209Z,4.53
2023-03-19T00:55:19.268Z,3.67
2023-03-19T00:57:22.432Z,3.78
2023-03-19T00:59:26.916Z,5.28
2023-03-19T01:01:29.766Z,4.72
2023-03-19T01:03:32.734Z,4.63
2023-03-19T01:07:40.078Z,4.50
2023-03-19T01:09:43.004Z,5.60
2023-03-19T01:11:45.834Z,2.70
2023-03-19T01:13:48.789Z,6.32
2023-03-19T01:15:53.694Z,4.30
2023-03-19T01:17:57.887Z,4.38
2023-03-19T01:20:00.710Z,6.18
2023-03-19T01:22:05.377Z,5.68
2023-03-19T01:24:10.699Z,6.65
2023-03-19T01:26:13.618Z,7.93
2023-03-19T01:28:17.001Z,3.95
2023-03-19T01:30:20.599Z,5.45
2023-03-19T01:32:46.391Z,5.45
2023-03-19T01:35:07.712Z,8.18
2023-03-19T01:37:12.674Z,7.97
2023-03-19T01:39:17.074Z,8.57
2023-03-19T01:41:20.969Z,10.75
2023-03-19T01:43:28.295Z,8.85
2023-03-19T01:45:35.967Z,10.90
2023-03-19T01:47:57.700Z,7.75
2023-03-19T01:50:25.154Z,3.40
2023-03-19T01:52:49.613Z,4.32
2023-03-19T01:55:07.298Z,6.35
2023-03-19T01:57:19.860Z,5.82
2023-03-19T01:59:43.998Z,6.97
2023-03-19T02:01:51.757Z,5.72
2023-03-19T02:03:57.246Z,4.93
2023-03-19T02:06:03.968Z,4.05
2023-03-19T02:08:12.458Z,5.05
2023-03-19T02:10:17.653Z,7.82
2023-03-19T02:12:20.549Z,5.72
2023-03-19T02:14:23.622Z,6.75
2023-03-19T02:16:27.180Z,8.57
2023-03-19T02:18:30.042Z,6.40
2023-03-19T02:20:37.998Z,4.10
2023-03-19T02:22:44.583Z,4.60
2023-03-19T02:24:54.540Z,3.83
2023-03-19T02:26:59.865Z,3.40
2023-03-19T02:29:04.103Z,4.82
2023-03-19T02:31:10.229Z,7.00
2023-03-19T02:33:14.696Z,7.60
2023-03-19T02:35:17.580Z,7.53
2023-03-19T02:37:26.021Z,8.15
2023-03-19T02:39:34.018Z,4.93
2023-03-19T02:41:39.207Z,6.78
2023-03-19T02:43:44.355Z,10.68
2023-03-19T02:45:47.336Z,3.55
2023-03-19T02:47:50.144Z,3.85
2023-03-19T02:49:53.585Z,4.03
2023-03-19T02:51:56.618Z,3.00
2023-03-19T02:54:00.934Z,4.32
2023-03-19T02:56:04.206Z,3.33
2023-03-19T02:58:07.104Z,3.47
2023-03-19T03:00:13.672Z,4.28
2023-03-19T03:02:16.557Z,4.43
2023-03-19T03:04:19.585Z,3.60
2023-03-19T03:06:22.628Z,4.00
2023-03-19T03:08:25.454Z,4.22
2023-03-19T03:10:28.612Z,4.43
2023-03-19T03:12:31.538Z,5.60
2023-03-19T03:14:35.091Z,3.72
2023-03-19T03:16:39.350Z,3.53
2023-03-19T03:18:42.442Z,5.82
2023-03-19T03:20:45.239Z,5.97
2023-03-19T03:22:48.651Z,3.95
2023-03-19T03:24:51.439Z,3.55
2023-03-19T03:26:54.236Z,3.38
2023-03-19T03:28:57.050Z,4.05
2023-03-19T03:31:01.008Z,3.83
2023-03-19T03:33:05.231Z,3.45
2023-03-19T03:35:09.328Z,4.43
2023-03-19T03:37:12.221Z,4.25
2023-03-19T03:39:15.175Z,3.13
2023-03-19T03:41:18.357Z,4.07
2023-03-19T03:43:21.855Z,3.50
2023-03-19T03:45:24.712Z,3.20
2023-03-19T03:47:28.529Z,5.25
2023-03-19T03:49:32.661Z,4.03
2023-03-19T03:51:35.820Z,3.92
2023-03-19T03:53:39.152Z,7.47
2023-03-19T03:55:42.683Z,3.85
2023-03-19T03:57:45.539Z,3.67
2023-03-19T03:59:48.400Z,4.10
2023-03-19T04:01:51.242Z,3.53
2023-03-19T04:03:54.345Z,4.57
2023-03-19T04:05:58.690Z,4.70
2023-03-19T04:08:01.740Z,5.68
2023-03-19T04:10:05.608Z,5.75
2023-03-19T04:12:08.714Z,5.53
2023-03-19T04:14:11.479Z,5.72
2023-03-19T04:16:15.533Z,4.72
2023-03-19T04:18:18.561Z,6.55
2023-03-19T04:20:22.743Z,9.95
2023-03-19T04:22:27.345Z,4.45
2023-03-19T04:24:30.676Z,5.72
2023-03-19T04:26:36.596Z,4.88
2023-03-19T04:28:39.536Z,6.72
2023-03-19T04:30:43.454Z,5.20
2023-03-19T04:32:46.604Z,5.85
2023-03-19T04:34:49.494Z,6.63
2023-03-19T04:36:52.284Z,7.00
2023-03-19T04:38:56.860Z,7.57
2023-03-19T04:40:59.658Z,5.43
2023-03-19T04:43:02.752Z,6.43
2023-03-19T04:45:10.070Z,5.30
2023-03-19T04:47:13.333Z,6.30
2023-03-19T04:49:29.074Z,4.63
2023-03-19T04:51:32.790Z,5.63
2023-03-19T04:53:36.084Z,6.03
2023-03-19T04:55:40.287Z,7.85
2023-03-19T04:57:49.538Z,6.15
2023-03-19T04:59:53.260Z,5.85
2023-03-19T05:01:57.769Z,6.35
2023-03-19T05:04:02.225Z,6.68
2023-03-19T05:06:06.928Z,5.18
2023-03-19T05:08:10.564Z,5.13
2023-03-19T05:10:13.463Z,4.75
2023-03-19T05:12:17.798Z,4.55
2023-03-19T05:14:24.580Z,5.40
2023-03-19T05:16:36.426Z,3.42
2023-03-19T05:18:41.265Z,3.40
2023-03-19T05:20:44.390Z,4.93
2023-03-19T05:22:56.480Z,7.78
2023-03-19T05:25:09.710Z,6.40
2023-03-19T05:27:15.377Z,5.68
2023-03-19T05:29:46.840Z,3.72
2023-03-19T05:31:59.846Z,4.28
2023-03-19T05:34:02.761Z,5.38
2023-03-19T05:36:08.345Z,4.25
2023-03-19T05:38:23.293Z,3.60
2023-03-19T05:40:41.897Z,3.70
2023-03-19T05:42:58.052Z,4.75
2023-03-19T05:45:05.768Z,5.15
2023-03-19T05:47:35.029Z,3.60
2023-03-19T05:49:38.308Z,4.90
2023-03-19T05:51:41.631Z,4.85
2023-03-19T05:53:46.016Z,5.95
2023-03-19T05:56:08.851Z,4.65
2023-03-19T05:58:22.629Z,4.15
2023-03-19T06:00:27.800Z,5.70
2023-03-19T06:02:30.636Z,4.90
2023-03-19T06:04:49.005Z,4.97
2023-03-19T06:06:54.943Z,4.45
2023-03-19T06:08:58.265Z,5.63
2023-03-19T06:11:14.244Z,4.07
2023-03-19T06:13:18.152Z,4.97
2023-03-19T06:15:45.143Z,5.90
2023-03-19T06:17:58.763Z,8.07
2023-03-19T06:20:01.722Z,9.20
2023-03-19T06:22:04.514Z,5.97
2023-03-19T06:24:07.899Z,6.55
2023-03-19T06:26:11.758Z,6.68
2023-03-19T06:28:23.809Z,4.53
2023-03-19T06:30:27.036Z,6.10
2023-03-19T06:32:33.553Z,4.30
2023-03-19T06:34:41.741Z,5.10
2023-03-19T06:36:45.091Z,8.05
2023-03-19T06:38:49.635Z,7.25
2023-03-19T06:40:52.968Z,5.65
2023-03-19T06:42:57.067Z,4.53
2023-03-19T06:45:00.202Z,6.68
2023-03-19T06:47:02.934Z,6.30
2023-03-19T06:49:07.961Z,6.60
2023-03-19T06:51:10.677Z,8.48
2023-03-19T06:53:13.604Z,6.38
2023-03-19T06:55:17.797Z,6.32
2023-03-19T06:57:20.755Z,5.70
2023-03-19T06:59:23.520Z,7.13
2023-03-19T07:01:26.525Z,5.47
2023-03-19T07:03:29.334Z,4.90
2023-03-19T07:05:33.500Z,5.82
2023-03-19T07:07:36.225Z,5.97
2023-03-19T07:09:38.973Z,6.60
2023-03-19T07:11:42.011Z,8.10
2023-03-19T07:13:44.802Z,5.68
2023-03-19T07:15:48.416Z,6.10
2023-03-19T07:17:51.112Z,8.23
2023-03-19T07:19:53.875Z,6.80
2023-03-19T07:21:57.995Z,6.05
2023-03-19T07:24:00.724Z,5.57
2023-03-19T07:26:03.784Z,6.15
2023-03-19T07:28:06.564Z,5.97
2023-03-19T07:30:12.142Z,4.28
2023-03-19T07:32:15.137Z,4.20
2023-03-19T07:34:17.911Z,4.68
2023-03-19T07:36:21.788Z,7.80
2023-03-19T07:38:25.970Z,4.93
2023-03-19T07:40:28.715Z,5.18
2023-03-19T07:42:31.490Z,4.82
2023-03-19T07:44:34.792Z,6.15
2023-03-19T07:46:37.804Z,5.25
2023-03-19T07:48:40.701Z,5.20
2023-03-19T07:50:43.454Z,4.25
2023-03-19T07:52:47.032Z,5.90
2023-03-19T07:54:51.171Z,7.28
2023-03-19T07:56:53.943Z,5.95
2023-03-19T07:58:57.047Z,5.78
2023-03-19T08:00:59.861Z,4.97
2023-03-19T08:03:02.661Z,7.43
2023-03-19T08:05:05.845Z,7.50
2023-03-19T08:07:10.744Z,5.07
2023-03-19T08:09:13.616Z,4.28
2023-03-19T08:11:17.780Z,5.20
2023-03-19T08:13:20.552Z,3.50
2023-03-19T08:15:23.356Z,5.03
2023-03-19T08:17:26.128Z,3.70
2023-03-19T08:19:29.274Z,4.40
2023-03-19T08:21:33.643Z,6.97
2023-03-19T08:23:36.450Z,6.43
2023-03-19T08:25:39.734Z,4.20
2023-03-19T08:27:43.946Z,5.30
2023-03-19T08:29:46.787Z,5.10
2023-03-19T08:31:49.582Z,4.90
2023-03-19T08:33:52.502Z,3.50
2023-03-19T08:35:55.366Z,4.82
2023-03-19T08:37:58.357Z,4.67
2023-03-19T08:40:01.232Z,5.00
2023-03-19T08:42:03.996Z,4.95
2023-03-19T08:44:08.100Z,4.40
2023-03-19T08:46:11.178Z,4.23
2023-03-19T08:48:14.343Z,3.67
2023-03-19T08:50:18.250Z,5.30
2023-03-19T08:52:21.135Z,4.00
2023-03-19T08:54:23.948Z,4.67
2023-03-19T08:56:26.758Z,4.13
2023-03-19T08:58:29.908Z,3.50
2023-03-19T09:00:34.306Z,3.37
2023-03-19T09:02:37.285Z,6.13
2023-03-19T09:04:42.037Z,3.80
2023-03-19T09:06:45.235Z,5.57
2023-03-19T09:08:47.971Z,3.63
2023-03-19T09:10:51.561Z,2.73
2023-03-19T09:12:54.436Z,5.40
2023-03-19T09:14:57.173Z,7.03
2023-03-19T09:17:01.258Z,6.10
2023-03-19T09:19:04.245Z,6.90
2023-03-19T09:21:07.094Z,3.40
2023-03-19T09:23:09.927Z,3.93
2023-03-19T09:25:13.145Z,4.93
2023-03-19T09:27:15.924Z,11.37
2023-03-19T09:29:18.692Z,4.90
2023-03-19T09:31:21.528Z,9.53
2023-03-19T09:33:25.752Z,5.40
2023-03-19T09:35:31.399Z,12.90
2023-03-19T09:37:34.221Z,6.17
2023-03-19T09:39:37.205Z,4.83
2023-03-19T09:41:51.616Z,5.40
2023-03-19T09:44:01.389Z,4.97
2023-03-19T09:46:07.579Z,4.80
2023-03-19T09:48:20.762Z,4.53
2023-03-19T09:50:28.813Z,6.00
2023-03-19T09:52:41.306Z,5.00
2023-03-19T09:54:48.288Z,6.17
2023-03-19T09:56:51.107Z,5.30
2023-03-19T09:58:54.029Z,10.60
2023-03-19T10:01:00.037Z,9.03
2023-03-19T10:03:08.695Z,11.23
2023-03-19T10:05:28.307Z,10.27
2023-03-19T10:07:44.781Z,5.50
2023-03-19T10:10:04.320Z,2.90
2023-03-19T10:12:21.173Z,3.00
2023-03-19T10:14:48.150Z,3.93
2023-03-19T10:16:56.012Z,2.63
2023-03-19T10:19:02.068Z,7.77
2023-03-19T10:21:12.973Z,2.80
2023-03-19T10:23:32.004Z,3.83
2023-03-19T10:25:41.352Z,3.63
2023-03-19T10:27:47.046Z,4.23
2023-03-19T10:29:49.907Z,4.37
2023-03-19T10:31:58.169Z,4.60
2023-03-19T10:34:12.939Z,4.23
2023-03-19T10:36:20.909Z,2.83
2023-03-19T10:38:25.644Z,3.67
2023-03-19T10:40:50.928Z,3.50
2023-03-19T10:43:05.342Z,3.43
2023-03-19T10:45:22.093Z,3.73
2023-03-19T10:47:27.379Z,4.47
2023-03-19T10:49:30.182Z,3.93
2023-03-19T10:51:34.424Z,5.33
2023-03-19T10:53:38.926Z,3.67
2023-03-19T10:55:55.327Z,2.97
2023-03-19T10:58:04.545Z,3.37
2023-03-19T11:00:17.002Z,3.30
2023-03-19T11:02:23.246Z,2.93
2023-03-19T11:04:28.768Z,3.40
2023-03-19T11:06:36.177Z,3.80
2023-03-19T11:08:39.599Z,2.80
2023-03-19T11:10:49.514Z,3.07
2023-03-19T11:12:56.200Z,2.97
2023-03-19T11:15:00.078Z,3.57
2023-03-19T11:17:07.537Z,3.80
2023-03-19T11:19:20.362Z,2.67
2023-03-19T11:21:26.390Z,3.30
2023-03-19T11:23:32.807Z,3.63
2023-03-19T11:25:39.376Z,2.33
2023-03-19T11:27:42.385Z,2.80
2023-03-19T11:29:47.006Z,2.17
2023-03-19T11:32:01.995Z,2.33
2023-03-19T11:34:34.078Z,3.10
2023-03-19T11:36:46.490Z,4.60
2023-03-19T11:39:09.472Z,2.50
2023-03-19T11:41:24.040Z,3.10
2023-03-19T11:43:45.562Z,3.10
2023-03-19T11:46:01.108Z,5.53
2023-03-19T11:48:21.036Z,4.53
2023-03-19T11:50:30.246Z,2.87
2023-03-19T11:52:39.194Z,2.23
2023-03-19T11:54:56.411Z,3.47
2023-03-19T11:57:03.824Z,3.53
2023-03-19T11:59:33.593Z,6.00
2023-03-19T12:02:01.600Z,2.47
2023-03-19T12:04:43.956Z,3.03
2023-03-19T12:06:57.027Z,4.77
2023-03-19T12:09:04.508Z,3.00
2023-03-19T12:11:18.892Z,2.03
2023-03-19T12:13:32.528Z,2.83
2023-03-19T12:15:41.570Z,2.53
2023-03-19T12:18:02.929Z,2.37
2023-03-19T12:20:32.452Z,3.80
2023-03-19T12:22:49.348Z,2.80
2023-03-19T12:25:11.642Z,2.50
2023-03-19T12:27:25.004Z,3.77
2023-03-19T12:29:38.004Z,4.73
2023-03-19T12:31:53.840Z,3.80
2023-03-19T12:34:10.757Z,2.10
2023-03-19T12:36:18.383Z,3.10
2023-03-19T12:38:25.307Z,4.37
2023-03-19T12:40:33.894Z,2.27
2023-03-19T12:42:40.975Z,3.10
2023-03-19T12:44:47.283Z,5.53
2023-03-19T12:46:59.016Z,3.97
2023-03-19T12:49:07.688Z,6.73
2023-03-19T12:51:15.198Z,2.43
2023-03-19T12:53:29.373Z,2.87
2023-03-19T12:55:41.138Z,2.33
2023-03-19T12:57:49.852Z,3.27
2023-03-19T13:00:00.047Z,3.90
2023-03-19T13:02:10.182Z,2.87
2023-03-19T13:04:18.061Z,2.43
2023-03-19T13:06:24.990Z,3.73
2023-03-19T13:08:34.156Z,4.17
2023-03-19T13:10:37.153Z,4.03
2023-03-19T13:12:40.012Z,4.80
2023-03-19T13:14:52.538Z,2.23
2023-03-19T13:17:03.091Z,1.90
2023-03-19T13:19:15.842Z,2.13
2023-03-19T13:21:24.970Z,2.57
2023-03-19T13:23:32.410Z,1.67
2023-03-19T13:25:39.510Z,2.83
2023-03-19T13:27:42.400Z,1.73
2023-03-19T13:30:00.743Z,0.73
2023-03-19T13:32:08.304Z,1.57
2023-03-19T13:34:22.495Z,1.27
2023-03-19T13:36:28.970Z,1.67
2023-03-19T13:38:40.520Z,0.70
2023-03-19T13:40:45.917Z,0.87
2023-03-19T13:42:57.658Z,1.07
2023-03-19T13:45:06.161Z,2.00
2023-03-19T13:47:40.847Z,0.83
2023-03-19T13:50:15.857Z,1.00
2023-03-19T13:52:48.198Z,0.97
2023-03-19T13:54:54.273Z,1.40
2023-03-19T13:57:07.847Z,1.00
2023-03-19T13:59:34.927Z,0.53
2023-03-19T14:01:44.589Z,1.10
2023-03-19T14:03:56.102Z,0.77
2023-03-19T14:06:00.565Z,1.10
2023-03-19T14:08:18.394Z,1.10
2023-03-19T14:10:26.311Z,0.80
2023-03-19T14:12:35.996Z,1.67
2023-03-19T14:14:43.176Z,1.33
2023-03-19T14:16:47.484Z,1.30
2023-03-19T14:18:51.071Z,1.37
2023-03-19T14:21:02.214Z,1.57
2023-03-19T14:23:23.331Z,1.43
2023-03-19T14:25:29.420Z,0.80
2023-03-19T14:27:33.832Z,1.40
2023-03-19T14:29:36.875Z,2.33
2023-03-19T14:31:46.266Z,2.53
2023-03-19T14:33:56.769Z,1.97
2023-03-19T14:36:04.665Z,1.07
2023-03-19T14:38:15.953Z,1.63
2023-03-19T14:40:22.364Z,1.10
2023-03-19T14:42:31.095Z,2.10
2023-03-19T14:44:56.172Z,1.37
2023-03-19T14:47:28.674Z,2.47
2023-03-19T14:49:56.081Z,1.73
2023-03-19T14:52:03.597Z,1.43
2023-03-19T14:54:22.299Z,1.00
2023-03-19T14:56:31.536Z,0.93
2023-03-19T14:58:34.393Z,0.97
2023-03-19T15:00:44.395Z,2.30
2023-03-19T15:02:49.888Z,1.03
2023-03-19T15:04:55.602Z,0.60
2023-03-19T15:07:01.052Z,1.63
2023-03-19T15:09:07.082Z,1.53
2023-03-19T15:11:39.674Z,1.43
2023-03-19T15:13:59.401Z,0.80
2023-03-19T15:16:29.440Z,1.17
2023-03-19T15:18:32.630Z,0.90
2023-03-19T15:20:43.372Z,0.40
2023-03-19T15:22:47.923Z,1.00
2023-03-19T15:24:52.021Z,1.00
2023-03-19T15:26:54.826Z,0.93
2023-03-19T15:28:58.016Z,2.77
2023-03-19T15:31:14.248Z,1.37
2023-03-19T15:33:39.231Z,0.93
2023-03-19T15:35:46.124Z,4.53
2023-03-19T15:37:58.355Z,0.70
2023-03-19T15:40:03.750Z,1.90
2023-03-19T15:42:07.186Z,2.17
2023-03-19T15:44:16.095Z,2.20
2023-03-19T15:46:23.620Z,4.10
2023-03-19T15:48:29.247Z,4.40
2023-03-19T15:50:36.549Z,4.37
2023-03-19T15:52:44.190Z,0.60
2023-03-19T15:54:47.346Z,1.67
2023-03-19T15:56:53.138Z,6.77
2023-03-19T15:58:58.458Z,4.30
2023-03-19T16:01:02.357Z,1.40
2023-03-19T16:03:07.092Z,2.90
2023-03-19T16:05:24.362Z,3.40
2023-03-19T16:07:37.809Z,3.27
2023-03-19T16:09:42.023Z,2.63
2023-03-19T16:11:46.403Z,1.30
2023-03-19T16:13:57.133Z,2.10
2023-03-19T16:16:04.348Z,1.70
2023-03-19T16:18:29.795Z,3.23
2023-03-19T16:20:32.711Z,1.70
2023-03-19T16:22:36.086Z,0.93
2023-03-19T16:24:43.578Z,2.03
2023-03-19T16:26:49.024Z,1.87
2023-03-19T16:29:06.157Z,1.50
2023-03-19T16:31:21.225Z,2.60
2023-03-19T16:33:28.255Z,2.00
2023-03-19T16:35:33.569Z,1.40
2023-03-19T16:37:43.137Z,2.23
2023-03-19T16:39:55.419Z,2.23
2023-03-19T16:42:17.431Z,1.57
2023-03-19T16:44:20.258Z,2.57
2023-03-19T16:46:29.313Z,2.10
2023-03-19T16:48:32.125Z,2.20
2023-03-19T16:50:37.775Z,2.60
2023-03-19T16:52:42.114Z,3.37
2023-03-19T16:54:45.452Z,3.10
2023-03-19T16:56:49.649Z,1.90
2023-03-19T16:58:53.514Z,1.40
2023-03-19T17:00:56.315Z,2.07
2023-03-19T17:02:59.333Z,1.77
2023-03-19T17:05:02.467Z,4.10
2023-03-19T17:07:05.501Z,2.37
2023-03-19T17:09:08.351Z,1.03
2023-03-19T17:11:19.460Z,1.60
2023-03-19T17:13:28.123Z,0.90
2023-03-19T17:15:34.923Z,2.93
2023-03-19T17:17:37.806Z,1.77
2023-03-19T17:19:40.687Z,0.90
2023-03-19T17:21:43.434Z,1.30
2023-03-19T17:23:46.475Z,1.53
2023-03-19T17:25:49.163Z,11.63
2023-03-19T17:27:51.839Z,6.93
2023-03-19T17:29:55.919Z,8.07
2023-03-19T17:32:01.837Z,6.40
2023-03-19T17:34:06.445Z,17.40
2023-03-19T17:36:11.898Z,23.60
2023-03-19T17:38:18.331Z,20.80
2023-03-19T17:40:23.064Z,13.60
2023-03-19T17:42:26.250Z,7.47
2023-03-19T17:44:29.392Z,4.03
2023-03-19T17:46:37.891Z,1.93
2023-03-19T17:48:40.740Z,2.97
2023-03-19T17:50:43.872Z,1.50
2023-03-19T17:52:47.663Z,2.33
2023-03-19T17:54:50.386Z,3.40
2023-03-19T17:56:53.722Z,1.40
2023-03-19T17:58:56.477Z,1.20
2023-03-19T18:00:59.506Z,1.23
2023-03-19T18:03:03.612Z,1.70
2023-03-19T18:05:07.359Z,1.53
2023-03-19T18:07:11.462Z,1.93
2023-03-19T18:09:19.967Z,1.70
2023-03-19T18:11:23.163Z,4.23
2023-03-19T18:13:26.669Z,1.60
2023-03-19T18:15:31.514Z,4.00
2023-03-19T18:17:34.493Z,1.17
2023-03-19T18:19:39.687Z,1.50
2023-03-19T18:21:42.500Z,1.10
2023-03-19T18:23:46.575Z,2.57
2023-03-19T18:25:51.143Z,1.88
2023-03-19T18:27:54.798Z,1.77
2023-03-19T18:29:57.577Z,3.33
2023-03-19T18:32:04.533Z,4.10
2023-03-19T18:34:11.514Z,2.05
2023-03-19T18:36:19.336Z,3.27
2023-03-19T18:38:23.737Z,3.03
2023-03-19T18:40:29.357Z,4.23
2023-03-19T18:42:32.044Z,1.88
2023-03-19T18:44:34.699Z,2.60
2023-03-19T18:46:39.762Z,13.90
2023-03-19T18:48:42.524Z,12.87
2023-03-19T18:50:47.079Z,15.37
2023-03-19T18:52:53.519Z,4.63
2023-03-19T18:54:56.263Z,4.20
2023-03-19T18:57:00.306Z,2.80
2023-03-19T18:59:09.789Z,4.55
2023-03-19T19:01:16.448Z,4.10
2023-03-19T19:03:21.680Z,5.00
2023-03-19T19:05:27.801Z,2.93
2023-03-19T19:07:31.119Z,2.87
2023-03-19T19:09:35.194Z,2.47
2023-03-19T19:11:38.285Z,3.50
2023-03-19T19:13:55.376Z,3.00
2023-03-19T19:15:59.943Z,4.37
2023-03-19T19:18:07.019Z,5.30
2023-03-19T19:20:15.794Z,3.63
2023-03-19T19:22:19.772Z,3.20
2023-03-19T19:24:22.771Z,4.43
2023-03-19T19:26:29.975Z,8.33
2023-03-19T19:28:38.706Z,7.57
2023-03-19T19:30:42.986Z,5.82
2023-03-19T19:32:46.740Z,8.07
2023-03-19T19:34:49.515Z,5.53
2023-03-19T19:36:52.499Z,4.40
2023-03-19T19:38:55.602Z,9.18
2023-03-19T19:41:00.419Z,4.97
2023-03-19T19:43:04.694Z,4.82
2023-03-19T19:45:14.846Z,5.17
2023-03-19T19:47:18.660Z,4.80
2023-03-19T19:49:23.210Z,2.97
2023-03-19T19:51:27.732Z,2.63
2023-03-19T19:53:30.978Z,5.28
2023-03-19T19:55:34.476Z,6.93
2023-03-19T19:57:40.081Z,6.78
2023-03-19T19:59:44.261Z,5.53
2023-03-19T20:01:47.086Z,4.30
2023-03-19T20:03:50.514Z,3.17
2023-03-19T20:05:54.414Z,5.90
2023-03-19T20:07:58.815Z,3.10
2023-03-19T20:10:01.734Z,1.88
2023-03-19T20:12:05.046Z,2.80
2023-03-19T20:14:14.661Z,2.20
2023-03-19T20:16:19.467Z,2.97
2023-03-19T20:18:23.513Z,3.55
2023-03-19T20:20:28.352Z,5.00
2023-03-19T20:22:31.721Z,5.00
2023-03-19T20:24:34.517Z,5.07
2023-03-19T20:26:37.352Z,3.17
2023-03-19T20:28:40.227Z,2.90
2023-03-19T20:30:43.105Z,3.40
2023-03-19T20:32:48.076Z,5.15
2023-03-19T20:34:53.874Z,1.85
2023-03-19T20:36:56.680Z,2.58
2023-03-19T20:38:59.484Z,2.55
2023-03-19T20:41:02.303Z,1.80
2023-03-19T20:43:07.596Z,2.20
2023-03-19T20:45:16.184Z,10.75
2023-03-19T20:47:20.873Z,6.22
2023-03-19T20:49:25.026Z,3.45
2023-03-19T20:51:31.551Z,2.50
2023-03-19T20:53:34.317Z,2.88
2023-03-19T20:55:38.849Z,7.85
2023-03-19T20:57:42.368Z,7.97
2023-03-19T20:59:46.835Z,8.10
2023-03-19T21:01:50.296Z,8.10
2023-03-19T21:03:53.345Z,12.35
2023-03-19T21:06:01.897Z,7.03
2023-03-19T21:08:06.320Z,3.83
2023-03-19T21:10:21.816Z,2.05
2023-03-19T21:12:29.591Z,1.90
2023-03-19T21:14:32.373Z,1.67
2023-03-19T21:16:36.352Z,2.70
2023-03-19T21:18:39.167Z,3.75
2023-03-19T21:20:44.021Z,2.20
2023-03-19T21:22:51.619Z,2.50
2023-03-19T21:25:03.239Z,2.58
2023-03-19T21:27:06.455Z,2.17
2023-03-19T21:29:15.846Z,3.10
2023-03-19T21:31:20.791Z,2.47
2023-03-19T21:33:26.337Z,2.20
2023-03-19T21:35:29.653Z,1.88
2023-03-19T21:37:33.504Z,3.40
2023-03-19T21:39:38.340Z,2.10
2023-03-19T21:41:41.308Z,1.60
2023-03-19T21:43:47.627Z,1.85
2023-03-19T21:45:51.520Z,1.90
2023-03-19T21:47:55.298Z,2.13
2023-03-19T21:50:00.280Z,1.92
2023-03-19T21:52:03.188Z,3.88
2023-03-19T21:54:06.056Z,2.92
2023-03-19T21:56:21.210Z,1.40
2023-03-19T21:58:29.336Z,1.70
2023-03-19T22:00:33.014Z,2.30
2023-03-19T22:02:41.181Z,1.77
2023-03-19T22:04:43.952Z,2.15
2023-03-19T22:06:47.061Z,2.13
2023-03-19T22:08:51.017Z,1.92
2023-03-19T22:10:57.648Z,1.70
2023-03-19T22:13:01.988Z,1.95
2023-03-19T22:15:05.719Z,1.77
2023-03-19T22:17:10.832Z,2.17
2023-03-19T22:19:14.811Z,2.13
2023-03-19T22:21:19.141Z,2.38
2023-03-19T22:23:22.379Z,3.38
2023-03-19T22:25:29.963Z,2.40
2023-03-19T22:27:32.767Z,1.73
2023-03-19T22:29:36.839Z,1.70
2023-03-19T22:31:39.825Z,1.95
2023-03-19T22:33:42.728Z,1.30
2023-03-19T22:35:49.316Z,1.42
2023-03-19T22:37:52.144Z,1.83
2023-03-19T22:39:55.496Z,4.45
2023-03-19T22:41:58.309Z,2.78
2023-03-19T22:44:03.713Z,1.13
2023-03-19T22:46:10.497Z,1.45
2023-03-19T22:48:17.971Z,1.45
2023-03-19T22:50:24.130Z,1.08
2023-03-19T22:52:29.037Z,1.20
2023-03-19T22:54:32.555Z,1.08
2023-03-19T22:56:35.407Z,1.15
2023-03-19T22:58:38.235Z,0.80
2023-03-19T23:00:41.076Z,1.23
2023-03-19T23:02:46.583Z,1.20
2023-03-19T23:04:49.490Z,0.98
2023-03-19T23:06:53.304Z,0.70
2023-03-19T23:08:56.046Z,0.93
2023-03-19T23:10:58.861Z,0.60
2023-03-19T23:13:01.740Z,1.10
2023-03-19T23:15:04.931Z,0.77
2023-03-19T23:17:17.335Z,2.05
2023-03-19T23:19:23.656Z,0.75
2023-03-19T23:21:26.403Z,0.60
2023-03-19T23:23:30.274Z,0.50
2023-03-19T23:25:33.443Z,0.75
2023-03-19T23:27:36.920Z,0.60
2023-03-19T23:29:45.426Z,0.70
2023-03-19T23:31:48.499Z,0.70
2023-03-19T23:33:51.231Z,0.60
2023-03-19T23:35:55.510Z,1.13
2023-03-19T23:37:59.132Z,0.63
2023-03-19T23:40:01.963Z,0.65
2023-03-19T23:42:04.854Z,0.40
2023-03-19T23:44:08.652Z,2.10
2023-03-19T23:46:11.514Z,0.70
2023-03-19T23:48:16.732Z,0.50
2023-03-19T23:50:19.448Z,0.60
2023-03-19T23:52:23.534Z,0.47
2023-03-19T23:54:31.488Z,0.60
2023-03-19T23:56:34.370Z,0.65
2023-03-19T23:58:40.182Z,0.80
